Time;durP1;ratioP1;P1;durP2;ratioP2;P2;SDS_P1;SDS_P2;PMS_P1;PMS_P2;Temp;Humidity;BMP_temperature;BMP_pressure;BME280_temperature;BME280_humidity;BME280_pressure;Samples;Min_cycle;Max_cycle;Signal;HPM_P1;HPM_P2
2021/07/20 00:01:14;;;;;;;14.67;10.37;;;16.10;99.90;;;;;;5049390;28;20216;-89
2021/07/20 00:03:43;;;;;;;12.90;8.73;;;16.10;99.90;;;;;;5045801;28;20203;-89
2021/07/20 00:06:10;;;;;;;11.27;8.60;;;16.10;99.90;;;;;;5031985;28;20658;-89
2021/07/20 00:08:37;;;;;;;14.83;8.67;;;16.00;99.90;;;;;;5032749;28;20207;-89
2021/07/20 00:11:04;;;;;;;12.23;8.53;;;16.10;99.90;;;;;;5041367;28;20221;-85
2021/07/20 00:13:31;;;;;;;11.73;8.57;;;16.00;99.90;;;;;;5052733;28;20217;-88
2021/07/20 00:15:58;;;;;;;13.60;8.90;;;16.00;99.90;;;;;;5053077;28;20194;-88
2021/07/20 00:18:27;;;;;;;13.93;9.10;;;15.90;99.90;;;;;;5051830;28;20214;-87
2021/07/20 00:20:55;;;;;;;16.20;9.73;;;15.90;99.90;;;;;;5051559;28;20240;-80
2021/07/20 00:23:23;;;;;;;13.07;8.60;;;15.90;99.90;;;;;;5052736;28;20518;-88
2021/07/20 00:25:50;;;;;;;12.37;9.20;;;15.80;99.90;;;;;;5051112;28;20557;-85
2021/07/20 00:28:18;;;;;;;15.20;8.90;;;15.80;99.90;;;;;;5040665;28;20203;-89
2021/07/20 00:30:45;;;;;;;13.10;8.60;;;15.80;99.90;;;;;;5049704;28;20542;-89
2021/07/20 00:33:12;;;;;;;15.87;9.90;;;15.80;99.90;;;;;;5053110;28;20213;-88
2021/07/20 00:35:39;;;;;;;16.30;9.87;;;15.70;99.90;;;;;;5036714;28;20217;-87
2021/07/20 00:38:07;;;;;;;14.83;9.47;;;15.70;99.90;;;;;;5032507;28;20209;-88
2021/07/20 00:40:34;;;;;;;13.37;8.97;;;15.70;99.90;;;;;;5032926;28;20222;-88
2021/07/20 00:43:02;;;;;;;14.60;9.93;;;15.70;99.90;;;;;;5032260;28;20601;-88
2021/07/20 00:45:29;;;;;;;14.77;10.00;;;15.60;99.90;;;;;;5031938;28;20814;-88
2021/07/20 00:47:56;;;;;;;15.13;9.70;;;15.60;99.90;;;;;;5032635;28;20191;-89
2021/07/20 00:50:25;;;;;;;15.30;10.30;;;15.60;99.90;;;;;;5042665;28;20245;-89
2021/07/20 00:52:53;;;;;;;14.80;9.73;;;15.60;99.90;;;;;;5052110;28;20263;-89
2021/07/20 00:55:22;;;;;;;16.37;10.50;;;15.50;99.90;;;;;;5052763;28;20197;-86
2021/07/20 00:57:50;;;;;;;15.23;10.20;;;15.50;99.90;;;;;;5045158;28;20202;-88
2021/07/20 01:00:20;;;;;;;15.97;9.80;;;15.50;99.90;;;;;;5032434;28;20280;-86
2021/07/20 01:02:48;;;;;;;14.57;10.27;;;15.50;99.90;;;;;;5045312;28;20197;-88
2021/07/20 01:05:19;;;;;;;16.60;10.77;;;15.40;99.90;;;;;;5051952;28;20230;-88
2021/07/20 01:07:48;;;;;;;16.93;11.63;;;15.40;99.90;;;;;;5031487;28;20900;-88
2021/07/20 01:10:16;;;;;;;20.47;11.83;;;15.30;99.90;;;;;;5031656;28;20494;-89
2021/07/20 01:12:46;;;;;;;14.17;9.67;;;15.30;99.90;;;;;;5031236;28;20206;-88
2021/07/20 01:15:14;;;;;;;18.43;10.57;;;15.30;99.90;;;;;;5039858;28;20865;-81
2021/07/20 01:17:43;;;;;;;13.70;9.37;;;15.30;99.90;;;;;;5050298;28;20206;-90
2021/07/20 01:20:12;;;;;;;12.93;8.90;;;15.20;99.90;;;;;;5037036;28;20545;-90
2021/07/20 01:22:41;;;;;;;13.30;9.13;;;15.20;99.90;;;;;;5030625;28;20206;-89
2021/07/20 01:25:12;;;;;;;11.67;8.83;;;15.20;99.90;;;;;;5030414;28;20229;-89
2021/07/20 01:27:44;;;;;;;15.20;10.17;;;15.20;99.90;;;;;;5030812;28;20587;-84
2021/07/20 01:30:13;;;;;;;12.87;9.40;;;15.20;99.90;;;;;;5051347;28;20193;-89
2021/07/20 01:32:40;;;;;;;15.97;10.00;;;15.10;99.90;;;;;;5051028;28;20625;-87
2021/07/20 01:35:10;;;;;;;13.67;9.53;;;15.10;99.90;;;;;;5051027;28;20204;-86
2021/07/20 01:37:38;;;;;;;14.80;9.90;;;15.10;99.90;;;;;;5041573;28;20202;-82
2021/07/20 01:40:07;;;;;;;18.60;11.67;;;15.10;99.90;;;;;;5028964;28;20217;-88
2021/07/20 01:42:37;;;;;;;15.77;10.73;;;15.10;99.90;;;;;;5028549;28;20206;-87
2021/07/20 01:45:04;;;;;;;14.60;9.30;;;15.10;99.90;;;;;;5031338;28;20221;-83
2021/07/20 01:47:33;;;;;;;13.73;9.73;;;15.00;99.90;;;;;;5031544;28;20202;-89
2021/07/20 01:50:00;;;;;;;12.00;8.87;;;15.00;99.90;;;;;;5032085;28;20642;-88
2021/07/20 01:52:29;;;;;;;15.30;10.03;;;15.00;99.90;;;;;;5031977;28;20198;-88
2021/07/20 01:54:55;;;;;;;14.17;9.43;;;15.00;99.90;;;;;;5033080;28;20206;-88
2021/07/20 01:57:22;;;;;;;12.93;9.37;;;14.90;99.90;;;;;;5040570;28;20202;-88
2021/07/20 01:59:50;;;;;;;13.40;9.53;;;14.90;99.90;;;;;;5045873;28;20209;-87
2021/07/20 02:02:28;;;;;;;14.87;9.50;;;14.90;99.90;;;;;;5040005;28;20684;-85
2021/07/20 02:10:28;;;;;;;13.40;9.53;;;14.80;99.90;;;;;;5056275;28;20193;-88
2021/07/20 02:12:57;;;;;;;13.53;9.33;;;14.80;99.90;;;;;;5036339;28;20217;-87
2021/07/20 02:15:26;;;;;;;12.53;8.67;;;14.80;99.90;;;;;;5034431;28;20202;-88
2021/07/20 02:17:54;;;;;;;14.80;9.87;;;14.80;99.90;;;;;;5034930;28;20252;-89
2021/07/20 02:20:25;;;;;;;11.97;8.43;;;14.80;99.90;;;;;;5035347;28;20213;-90
2021/07/20 02:22:54;;;;;;;12.13;8.47;;;14.80;99.90;;;;;;5033831;28;20186;-89
2021/07/20 02:25:23;;;;;;;12.93;8.57;;;14.70;99.90;;;;;;5035898;28;20226;-89
2021/07/20 02:27:50;;;;;;;11.47;8.40;;;14.70;99.90;;;;;;5044084;28;20213;-89
2021/07/20 02:30:19;;;;;;;11.57;8.60;;;14.70;99.90;;;;;;5045800;28;20229;-81
2021/07/20 02:32:48;;;;;;;12.60;9.17;;;14.60;99.90;;;;;;5030409;28;20202;-89
2021/07/20 02:35:21;;;;;;;11.97;8.87;;;14.60;99.90;;;;;;5030150;28;20218;-89
2021/07/20 02:37:49;;;;;;;11.80;8.37;;;14.60;99.90;;;;;;5028813;28;20206;-85
2021/07/20 02:40:17;;;;;;;11.57;8.10;;;14.60;99.90;;;;;;5029040;28;20861;-80
2021/07/20 02:42:45;;;;;;;10.63;7.80;;;14.50;99.90;;;;;;5029797;28;20206;-81
2021/07/20 02:45:14;;;;;;;10.37;7.77;;;14.50;99.90;;;;;;5029267;28;20222;-80
2021/07/20 02:47:41;;;;;;;11.40;7.50;;;14.50;99.90;;;;;;5028985;28;20229;-80
2021/07/20 02:50:12;;;;;;;13.13;8.97;;;14.50;99.90;;;;;;5029156;28;20237;-81
2021/07/20 02:52:42;;;;;;;12.77;8.47;;;14.50;99.90;;;;;;5028804;28;20194;-80
2021/07/20 02:55:11;;;;;;;12.83;8.37;;;14.40;99.90;;;;;;5028823;28;20566;-88
2021/07/20 02:57:39;;;;;;;10.47;7.97;;;14.40;99.90;;;;;;5029446;28;20310;-89
2021/07/20 03:00:07;;;;;;;10.10;7.43;;;14.40;99.90;;;;;;5021227;28;20206;-83
2021/07/20 03:02:35;;;;;;;10.27;6.97;;;14.30;99.90;;;;;;5029350;28;20206;-88
2021/07/20 03:05:03;;;;;;;11.47;7.87;;;14.30;99.90;;;;;;5030428;28;20219;-80
2021/07/20 03:07:33;;;;;;;14.77;9.03;;;14.20;99.90;;;;;;5028758;28;20210;-81
2021/07/20 03:10:01;;;;;;;13.20;9.40;;;14.20;99.90;;;;;;5029200;28;20207;-81
2021/07/20 03:12:29;;;;;;;14.10;8.83;;;14.10;99.90;;;;;;5031017;28;20670;-88
2021/07/20 03:14:58;;;;;;;11.63;8.13;;;14.10;99.90;;;;;;5035875;28;20209;-83
2021/07/20 03:17:28;;;;;;;11.93;8.07;;;14.00;99.90;;;;;;5048978;28;20206;-90
2021/07/20 03:19:57;;;;;;;11.90;8.13;;;14.00;99.90;;;;;;5050931;28;20197;-90
2021/07/20 03:22:28;;;;;;;9.67;7.40;;;13.90;99.90;;;;;;5030662;28;20198;-90
2021/07/20 03:24:59;;;;;;;12.37;8.17;;;13.90;99.90;;;;;;5031299;28;20195;-89
2021/07/20 03:27:31;;;;;;;14.20;8.13;;;13.90;99.90;;;;;;5034419;28;20214;-89
2021/07/20 03:29:59;;;;;;;16.93;10.23;;;13.90;99.90;;;;;;5034031;28;20290;-89
2021/07/20 03:32:26;;;;;;;14.93;9.33;;;13.80;99.90;;;;;;5033290;28;20199;-86
2021/07/20 03:34:54;;;;;;;13.17;8.33;;;13.80;99.90;;;;;;5032922;28;20202;-90
2021/07/20 03:37:23;;;;;;;15.30;8.77;;;13.70;99.90;;;;;;5030718;28;20207;-89
2021/07/20 03:39:52;;;;;;;14.47;9.60;;;13.70;99.90;;;;;;5029447;28;20230;-85
2021/07/20 03:42:21;;;;;;;13.63;9.37;;;13.70;99.90;;;;;;5037108;28;20310;-89
2021/07/20 03:44:49;;;;;;;15.27;10.03;;;13.70;99.90;;;;;;5036757;28;20198;-84
2021/07/20 03:47:16;;;;;;;12.50;9.03;;;13.60;99.90;;;;;;5035318;28;20218;-89
2021/07/20 03:49:43;;;;;;;14.77;10.03;;;13.60;99.90;;;;;;5034180;28;20226;-90
2021/07/20 03:52:11;;;;;;;13.03;8.83;;;13.60;99.90;;;;;;5034263;28;20203;-88
2021/07/20 03:54:39;;;;;;;13.17;9.40;;;13.60;99.90;;;;;;5066752;28;20205;-89
2021/07/20 03:57:07;;;;;;;13.37;9.07;;;13.60;99.90;;;;;;5072677;28;20504;-89
2021/07/20 03:59:38;;;;;;;13.47;8.97;;;13.60;99.90;;;;;;5044733;28;20733;-90
2021/07/20 04:02:06;;;;;;;11.27;8.27;;;13.60;99.90;;;;;;5033349;28;20199;-90
2021/07/20 04:04:36;;;;;;;13.17;8.40;;;13.60;99.90;;;;;;5032675;28;20207;-90
2021/07/20 04:07:06;;;;;;;14.03;8.57;;;13.60;99.90;;;;;;5032932;28;20230;-89
2021/07/20 04:09:33;;;;;;;14.23;9.10;;;13.50;99.90;;;;;;5032508;28;20242;-90
2021/07/20 04:12:01;;;;;;;13.27;8.80;;;13.60;99.90;;;;;;5032141;28;20217;-88
2021/07/20 04:14:28;;;;;;;15.17;10.33;;;13.60;99.90;;;;;;5032975;28;20203;-89
2021/07/20 04:16:56;;;;;;;14.93;9.53;;;13.50;99.90;;;;;;5032022;28;20203;-89
2021/07/20 04:19:23;;;;;;;15.97;9.97;;;13.50;99.90;;;;;;5032847;28;20492;-88
2021/07/20 04:21:50;;;;;;;14.50;9.97;;;13.60;99.90;;;;;;5031382;28;20199;-91
2021/07/20 04:24:17;;;;;;;15.20;9.97;;;13.50;99.90;;;;;;5032819;28;20231;-82
2021/07/20 04:26:45;;;;;;;15.80;10.03;;;13.50;99.90;;;;;;5031257;28;20999;-87
2021/07/20 04:29:12;;;;;;;16.07;10.30;;;13.50;99.90;;;;;;5033240;28;20599;-90
2021/07/20 04:31:41;;;;;;;17.67;10.70;;;13.60;99.90;;;;;;5032018;28;20210;-90
2021/07/20 04:34:11;;;;;;;14.67;10.47;;;13.60;99.90;;;;;;5042610;28;20293;-89
2021/07/20 04:36:41;;;;;;;16.37;10.03;;;13.60;99.90;;;;;;5052712;28;20205;-91
2021/07/20 04:39:09;;;;;;;15.53;9.43;;;13.60;99.90;;;;;;5052625;28;20221;-88
2021/07/20 04:41:38;;;;;;;17.10;10.60;;;13.50;99.90;;;;;;5051303;28;20497;-89
2021/07/20 04:44:06;;;;;;;14.13;9.30;;;13.60;99.90;;;;;;5052161;28;20229;-90
2021/07/20 04:46:33;;;;;;;15.07;10.53;;;13.60;99.90;;;;;;5049276;28;20238;-87
2021/07/20 04:49:01;;;;;;;14.17;9.57;;;13.60;99.90;;;;;;5032435;28;20237;-89
2021/07/20 04:51:32;;;;;;;14.50;9.50;;;13.70;99.90;;;;;;5031590;28;20234;-88
2021/07/20 04:54:00;;;;;;;14.67;9.50;;;13.70;99.90;;;;;;5032616;28;20202;-89
2021/07/20 04:56:27;;;;;;;12.53;8.80;;;13.80;99.90;;;;;;5032455;28;20213;-89
2021/07/20 04:58:53;;;;;;;13.90;8.97;;;13.80;99.90;;;;;;5045114;28;20213;-88
2021/07/20 05:01:21;;;;;;;12.33;9.33;;;13.80;99.90;;;;;;5035988;28;20194;-89
2021/07/20 05:03:48;;;;;;;15.30;9.33;;;13.90;99.90;;;;;;5032232;28;20217;-88
2021/07/20 05:06:16;;;;;;;13.57;9.37;;;13.90;99.90;;;;;;5032703;28;20704;-89
2021/07/20 05:08:45;;;;;;;13.03;9.57;;;14.00;99.90;;;;;;5031963;28;20773;-89
2021/07/20 05:11:13;;;;;;;14.07;9.40;;;14.00;99.90;;;;;;5030890;28;20205;-89
2021/07/20 05:13:41;;;;;;;12.00;9.10;;;14.10;99.90;;;;;;5032357;28;20221;-87
2021/07/20 05:16:08;;;;;;;15.23;9.80;;;14.20;99.90;;;;;;5031798;28;20203;-88
2021/07/20 05:18:37;;;;;;;15.67;10.20;;;14.30;99.90;;;;;;5035651;28;20491;-88
2021/07/20 05:21:05;;;;;;;17.73;10.90;;;14.30;99.90;;;;;;5031889;28;20598;-88
2021/07/20 05:23:33;;;;;;;14.20;9.40;;;14.40;99.90;;;;;;5031420;28;20206;-88
2021/07/20 05:26:02;;;;;;;13.43;9.33;;;14.40;99.90;;;;;;5032051;28;20218;-88
2021/07/20 05:28:31;;;;;;;14.67;9.77;;;14.50;99.90;;;;;;5031282;28;20213;-88
2021/07/20 05:31:00;;;;;;;15.67;9.73;;;14.60;99.90;;;;;;5030854;28;20199;-88
2021/07/20 05:33:28;;;;;;;14.87;10.10;;;14.70;99.90;;;;;;5031238;28;20206;-85
2021/07/20 05:35:57;;;;;;;15.97;10.27;;;14.80;99.90;;;;;;5030330;28;20214;-89
2021/07/20 05:38:25;;;;;;;16.10;9.77;;;15.10;99.90;;;;;;5026433;28;20218;-89
2021/07/20 05:40:55;;;;;;;14.53;9.83;;;15.30;99.90;;;;;;5026939;28;20222;-89
2021/07/20 05:43:23;;;;;;;14.13;10.00;;;15.60;99.90;;;;;;5034542;28;20208;-85
2021/07/20 05:45:52;;;;;;;15.60;9.98;;;16.00;99.90;;;;;;5049053;28;20226;-82
2021/07/20 05:48:21;;;;;;;14.05;9.48;;;16.40;99.90;;;;;;5050371;28;20220;-87
2021/07/20 05:50:51;;;;;;;13.93;9.43;;;16.70;99.90;;;;;;5032441;28;20574;-89
2021/07/20 05:53:19;;;;;;;14.20;9.57;;;17.00;99.90;;;;;;5031021;28;20213;-87
2021/07/20 05:55:49;;;;;;;12.18;8.85;;;17.30;99.90;;;;;;5031303;28;20207;-88
2021/07/20 05:58:18;;;;;;;11.93;8.63;;;17.60;99.90;;;;;;5031239;28;20214;-88
2021/07/20 06:00:47;;;;;;;12.80;8.85;;;17.90;99.90;;;;;;5030045;28;20531;-88
2021/07/20 06:03:16;;;;;;;11.13;8.40;;;18.10;99.90;;;;;;5027298;28;20217;-88
2021/07/20 06:05:44;;;;;;;10.48;8.05;;;18.40;99.90;;;;;;5025741;28;20209;-89
2021/07/20 06:08:15;;;;;;;12.25;8.93;;;18.60;99.90;;;;;;5028156;28;20206;-87
2021/07/20 06:10:43;;;;;;;10.40;8.18;;;18.90;99.90;;;;;;5029377;28;20198;-88
2021/07/20 06:13:12;;;;;;;10.63;8.20;;;19.10;99.90;;;;;;5027880;28;20619;-85
2021/07/20 06:15:40;;;;;;;10.88;7.63;;;19.30;99.90;;;;;;5028181;28;20599;-88
2021/07/20 06:18:09;;;;;;;8.20;6.88;;;19.60;99.90;;;;;;5034276;28;20214;-88
2021/07/20 06:20:37;;;;;;;10.65;7.00;;;19.80;99.90;;;;;;5050085;28;20210;-88
2021/07/20 06:23:05;;;;;;;7.95;6.55;;;20.00;99.90;;;;;;5043205;28;20208;-88
2021/07/20 06:25:33;;;;;;;9.85;6.22;;;20.20;99.90;;;;;;5070375;28;20212;-88
2021/07/20 06:28:00;;;;;;;7.88;6.53;;;20.40;99.90;;;;;;5056301;28;20233;-86
2021/07/20 06:30:28;;;;;;;7.68;6.72;;;20.70;99.90;;;;;;5050440;28;20204;-90
2021/07/20 06:32:55;;;;;;;8.00;6.13;;;20.80;99.90;;;;;;5050433;28;20799;-87
2021/07/20 06:35:24;;;;;;;7.60;5.95;;;21.00;99.90;;;;;;5035762;28;20234;-88
2021/07/20 06:37:52;;;;;;;7.13;5.68;;;21.20;99.90;;;;;;5030359;28;20195;-87
2021/07/20 06:40:20;;;;;;;7.47;5.75;;;21.40;99.90;;;;;;5030300;28;20218;-86
2021/07/20 06:42:48;;;;;;;6.32;5.60;;;21.70;99.90;;;;;;5048766;28;20237;-86
2021/07/20 06:45:16;;;;;;;6.32;5.15;;;21.90;99.90;;;;;;5050959;28;20213;-85
2021/07/20 06:47:46;;;;;;;6.65;4.63;;;22.00;99.90;;;;;;5049017;28;20226;-88
2021/07/20 06:50:17;;;;;;;7.35;5.43;;;22.00;99.90;;;;;;5031230;28;20285;-86
2021/07/20 06:52:46;;;;;;;6.13;4.65;;;22.20;99.90;;;;;;5035234;28;20188;-89
2021/07/20 06:55:13;;;;;;;5.20;4.70;;;22.30;99.90;;;;;;5052846;28;20217;-87
2021/07/20 06:57:44;;;;;;;6.22;5.15;;;22.40;99.90;;;;;;5053995;28;20210;-86
2021/07/20 07:00:12;;;;;;;6.30;5.15;;;22.60;99.90;;;;;;5054558;28;20190;-88
2021/07/20 07:02:43;;;;;;;5.35;4.75;;;22.80;99.90;;;;;;5054478;28;20194;-89
2021/07/20 07:05:14;;;;;;;5.60;4.50;;;23.20;99.90;;;;;;5039620;28;20554;-87
2021/07/20 07:07:42;;;;;;;7.18;6.43;;;23.50;99.90;;;;;;5035394;28;20219;-87
2021/07/20 07:10:15;;;;;;;6.07;5.20;;;23.70;99.90;;;;;;5034455;28;20206;-89
2021/07/20 07:12:43;;;;;;;5.65;4.72;;;23.80;99.90;;;;;;5034707;28;20179;-87
2021/07/20 07:15:11;;;;;;;9.95;5.53;;;24.00;99.90;;;;;;5039626;28;20987;-83
2021/07/20 07:17:38;;;;;;;7.72;5.10;;;24.00;99.90;;;;;;5064796;28;20218;-91
2021/07/20 07:20:06;;;;;;;7.53;5.45;;;23.80;99.90;;;;;;5049466;28;20230;-82
2021/07/20 07:22:36;;;;;;;6.25;5.22;;;23.80;99.90;;;;;;5035686;28;20207;-81
2021/07/20 07:25:04;;;;;;;6.35;5.13;;;23.90;99.90;;;;;;5030388;28;20207;-84
2021/07/20 07:27:32;;;;;;;6.18;5.00;;;24.30;99.90;;;;;;5030058;28;20317;-88
2021/07/20 07:30:02;;;;;;;6.13;4.43;;;24.50;99.90;;;;;;5028220;28;20222;-85
2021/07/20 07:32:29;;;;;;;4.65;4.15;;;24.80;99.90;;;;;;5050877;28;20210;-87
2021/07/20 07:34:56;;;;;;;5.03;4.53;;;25.00;99.90;;;;;;5053419;28;20872;-92
2021/07/20 07:37:25;;;;;;;5.00;4.47;;;25.00;99.90;;;;;;5052361;28;20202;-85
2021/07/20 07:39:54;;;;;;;5.30;4.80;;;25.10;99.90;;;;;;5048991;28;20327;-82
2021/07/20 07:42:21;;;;;;;5.57;4.80;;;25.20;99.90;;;;;;5050185;28;20218;-82
2021/07/20 07:44:51;;;;;;;6.55;5.05;;;25.50;99.90;;;;;;5050151;28;20202;-81
2021/07/20 07:47:19;;;;;;;5.28;4.78;;;25.50;99.90;;;;;;5030816;28;20948;-82
2021/07/20 07:49:46;;;;;;;5.50;4.50;;;25.70;99.90;;;;;;5028084;28;20651;-83
2021/07/20 07:52:14;;;;;;;5.75;4.85;;;25.70;99.90;;;;;;5029911;28;20183;-84
2021/07/20 07:54:41;;;;;;;6.15;5.00;;;25.50;99.90;;;;;;5047376;28;20205;-81
2021/07/20 07:57:08;;;;;;;7.20;4.63;;;25.50;99.90;;;;;;5048226;28;20241;-87
2021/07/20 07:59:38;;;;;;;5.82;4.50;;;25.60;99.90;;;;;;5036746;28;20214;-83
2021/07/20 08:02:08;;;;;;;5.20;4.47;;;25.50;99.90;;;;;;5027567;28;20634;-79
2021/07/20 08:04:36;;;;;;;5.63;5.13;;;25.90;99.90;;;;;;5028515;28;20258;-80
2021/07/20 08:07:04;;;;;;;5.90;4.57;;;26.00;99.90;;;;;;5030527;28;20226;-91
2021/07/20 08:09:33;;;;;;;5.22;4.40;;;26.00;99.90;;;;;;5029137;28;20209;-86
2021/07/20 08:12:01;;;;;;;6.53;4.13;;;26.10;99.90;;;;;;5030224;28;20236;-83
2021/07/20 08:14:29;;;;;;;5.05;4.30;;;26.40;99.90;;;;;;5037375;28;20223;-89
2021/07/20 08:16:59;;;;;;;5.57;4.50;;;26.60;99.90;;;;;;5028778;28;20203;-91
2021/07/20 08:19:31;;;;;;;4.80;4.30;;;26.70;99.90;;;;;;5029481;28;20194;-81
2021/07/20 08:22:00;;;;;;;6.18;4.45;;;26.50;99.90;;;;;;5029084;28;20810;-82
2021/07/20 08:24:29;;;;;;;5.00;4.50;;;26.50;99.90;;;;;;5030676;28;20202;-83
2021/07/20 08:27:00;;;;;;;4.93;4.43;;;26.50;99.90;;;;;;5029402;28;20227;-83
2021/07/20 08:29:34;;;;;;;5.15;4.63;;;26.80;99.90;;;;;;5029183;28;20916;-82
2021/07/20 08:32:07;;;;;;;6.35;4.60;;;27.10;99.90;;;;;;5030834;28;20854;-80
2021/07/20 08:34:41;;;;;;;5.45;4.88;;;27.40;99.90;;;;;;5032018;28;20215;-88
2021/07/20 08:37:10;;;;;;;6.72;4.47;;;27.60;99.90;;;;;;5052414;28;20201;-88
2021/07/20 08:39:39;;;;;;;7.43;5.30;;;27.40;99.90;;;;;;5051173;28;20318;-90
2021/07/20 08:42:15;;;;;;;5.10;4.53;;;27.40;99.90;;;;;;5048117;28;20223;-91
2021/07/20 08:45:02;;;;;;;5.93;4.75;;;27.50;99.90;;;;;;5027341;28;20183;-89
2021/07/20 08:47:43;;;;;;;6.55;5.68;;;27.60;99.90;;;;;;5031547;28;20229;-90
2021/07/20 08:50:31;;;;;;;5.53;5.03;;;27.40;99.90;;;;;;5032295;28;20298;-87
2021/07/20 08:53:09;;;;;;;5.38;4.85;;;27.60;99.90;;;;;;5031855;28;20199;-84
2021/07/20 08:55:41;;;;;;;5.40;4.90;;;27.80;99.90;;;;;;5032042;28;20191;-86
2021/07/20 08:58:21;;;;;;;6.43;4.90;;;27.80;99.90;;;;;;5051919;28;20258;-87
2021/07/20 09:00:50;;;;;;;6.32;4.65;;;27.90;99.90;;;;;;5051803;28;20280;-88
2021/07/20 09:03:42;;;;;;;4.88;4.30;;;28.20;99.90;;;;;;5051499;28;20240;-89
2021/07/20 09:06:13;;;;;;;5.60;4.82;;;28.20;99.90;;;;;;5039692;28;20663;-90
2021/07/20 09:08:44;;;;;;;4.82;4.43;;;28.30;99.90;;;;;;5050634;28;20225;-90
2021/07/20 09:11:14;;;;;;;5.28;4.57;;;28.40;99.90;;;;;;5051212;28;20194;-89
2021/07/20 09:13:49;;;;;;;5.35;4.80;;;28.60;99.90;;;;;;5031087;28;20206;-90
2021/07/20 09:16:24;;;;;;;5.15;4.65;;;28.40;99.90;;;;;;5037388;28;20627;-89
2021/07/20 09:18:56;;;;;;;5.80;4.72;;;28.30;99.90;;;;;;5050589;28;20198;-90
2021/07/20 09:21:28;;;;;;;4.88;4.38;;;28.20;99.90;;;;;;5047648;28;20194;-91
2021/07/20 09:24:02;;;;;;;7.22;5.30;;;27.70;99.90;;;;;;5047060;28;20320;-92
2021/07/20 09:26:35;;;;;;;6.32;5.70;;;27.40;99.90;;;;;;5031687;28;20238;-87
2021/07/20 09:29:06;;;;;;;8.20;5.00;;;27.40;99.90;;;;;;5025375;28;20218;-81
2021/07/20 09:31:38;;;;;;;6.00;5.32;;;27.60;99.90;;;;;;5024298;28;20205;-81
2021/07/20 09:34:19;;;;;;;7.38;5.07;;;27.70;99.90;;;;;;5025168;28;20221;-83
2021/07/20 09:36:53;;;;;;;5.70;5.03;;;27.80;99.90;;;;;;5024099;28;20609;-81
2021/07/20 09:39:46;;;;;;;6.00;5.40;;;28.10;99.90;;;;;;5033285;28;20212;-83
2021/07/20 09:42:30;;;;;;;6.75;5.10;;;28.20;99.90;;;;;;5037957;28;20260;-83
2021/07/20 09:45:03;;;;;;;5.32;4.82;;;28.20;99.90;;;;;;5044488;28;20189;-83
2021/07/20 09:47:54;;;;;;;5.40;4.90;;;28.30;99.90;;;;;;5044921;28;20232;-90
2021/07/20 09:50:22;;;;;;;5.20;4.70;;;28.20;99.90;;;;;;5021640;28;20804;-82
2021/07/20 09:53:23;;;;;;;5.72;5.10;;;28.10;99.90;;;;;;5024525;28;20206;-80
2021/07/20 09:56:09;;;;;;;6.35;4.55;;;27.90;99.90;;;;;;5024033;28;20203;-79
2021/07/20 09:58:40;;;;;;;6.03;4.82;;;28.10;99.90;;;;;;5023112;28;20221;-81
2021/07/20 10:01:17;;;;;;;5.65;5.07;;;28.50;99.90;;;;;;5025009;28;20212;-80
2021/07/20 10:03:54;;;;;;;7.95;5.32;;;28.80;99.90;;;;;;5024409;28;20400;-79
2021/07/20 10:06:29;;;;;;;5.72;4.72;;;28.90;99.90;;;;;;5024927;28;20210;-80
2021/07/20 10:09:02;;;;;;;5.97;5.32;;;28.50;99.90;;;;;;5026567;28;20642;-79
2021/07/20 10:11:37;;;;;;;6.28;5.20;;;28.10;99.90;;;;;;5031738;28;20216;-80
2021/07/20 10:14:16;;;;;;;6.22;5.25;;;27.70;99.90;;;;;;5026479;28;20198;-80
2021/07/20 10:16:53;;;;;;;6.20;5.35;;;27.10;99.90;;;;;;5045510;28;20201;-79
2021/07/20 10:19:28;;;;;;;5.65;4.80;;;26.70;99.90;;;;;;5045080;28;20213;-80
2021/07/20 10:21:57;;;;;;;5.20;4.70;;;26.50;99.90;;;;;;5041257;28;20198;-82
2021/07/20 10:24:28;;;;;;;6.05;5.43;;;26.80;99.90;;;;;;5025591;28;20202;-82
2021/07/20 10:27:00;;;;;;;7.22;5.43;;;27.10;99.90;;;;;;5029711;28;20202;-79
2021/07/20 10:29:40;;;;;;;5.95;4.53;;;27.10;99.90;;;;;;5028780;28;20198;-84
2021/07/20 10:32:13;;;;;;;5.53;5.03;;;27.60;99.90;;;;;;5029566;28;20210;-81
2021/07/20 10:34:45;;;;;;;6.13;5.53;;;28.00;99.90;;;;;;5027812;28;20614;-81
2021/07/20 10:37:17;;;;;;;7.88;5.25;;;28.30;99.90;;;;;;5032459;28;20198;-80
2021/07/20 10:39:51;;;;;;;7.35;5.57;;;28.30;99.90;;;;;;5048382;28;20339;-89
2021/07/20 10:42:23;;;;;;;7.07;5.88;;;28.50;99.90;;;;;;5044016;28;20273;-80
2021/07/20 10:44:58;;;;;;;5.97;5.38;;;28.20;99.90;;;;;;5027814;28;20519;-80
2021/07/20 10:47:31;;;;;;;6.57;5.35;;;28.30;99.90;;;;;;5028993;28;20213;-89
2021/07/20 10:50:02;;;;;;;7.13;5.80;;;28.50;99.90;;;;;;5030930;28;20206;-86
2021/07/20 10:52:38;;;;;;;6.35;5.00;;;28.30;99.90;;;;;;5030047;28;20207;-83
2021/07/20 10:55:14;;;;;;;6.18;5.57;;;28.40;99.90;;;;;;5030687;28;20213;-85
2021/07/20 10:57:50;;;;;;;7.10;6.07;;;28.70;99.90;;;;;;5051920;28;20204;-84
2021/07/20 11:00:19;;;;;;;6.63;6.03;;;28.90;99.90;;;;;;5040901;28;20781;-85
2021/07/20 11:03:00;;;;;;;7.30;5.90;;;28.80;99.90;;;;;;5030567;28;20198;-87
2021/07/20 11:05:30;;;;;;;7.47;6.40;;;28.80;99.90;;;;;;5032235;28;20226;-89
2021/07/20 11:08:01;;;;;;;6.90;6.20;;;28.90;99.90;;;;;;5030365;28;20729;-84
2021/07/20 11:10:33;;;;;;;10.88;6.22;;;28.70;99.90;;;;;;5030514;28;20210;-80
2021/07/20 11:13:03;;;;;;;7.57;6.55;;;28.50;99.90;;;;;;5029759;28;20210;-81
2021/07/20 11:15:32;;;;;;;6.93;5.38;;;27.80;99.90;;;;;;5042519;28;20217;-82
2021/07/20 11:18:04;;;;;;;7.43;6.22;;;27.40;99.90;;;;;;5048802;28;20566;-81
2021/07/20 11:20:33;;;;;;;7.20;6.50;;;27.70;99.90;;;;;;5030660;28;20236;-81
2021/07/20 11:23:00;;;;;;;7.13;6.25;;;27.60;99.90;;;;;;5027626;28;20885;-90
2021/07/20 11:25:29;;;;;;;8.13;6.65;;;27.90;99.90;;;;;;5035167;28;20602;-82
2021/07/20 11:27:59;;;;;;;6.72;6.03;;;28.20;99.90;;;;;;5044712;28;20240;-84
2021/07/20 11:30:29;;;;;;;6.53;5.93;;;28.00;99.90;;;;;;5054347;28;20190;-83
2021/07/20 11:33:01;;;;;;;6.60;6.00;;;27.90;99.90;;;;;;5052746;28;20198;-80
2021/07/20 11:35:35;;;;;;;7.00;6.30;;;27.90;99.90;;;;;;5045838;28;20206;-82
2021/07/20 11:38:13;;;;;;;8.65;7.55;;;28.00;99.90;;;;;;5028294;28;20195;-84
2021/07/20 11:40:48;;;;;;;8.13;7.20;;;28.00;99.90;;;;;;5041313;28;20237;-78
2021/07/20 11:43:22;;;;;;;9.73;6.85;;;28.00;99.90;;;;;;5048293;28;20228;-83
2021/07/20 11:45:54;;;;;;;7.38;6.57;;;28.00;99.90;;;;;;5048547;28;20206;-80
2021/07/20 11:48:21;;;;;;;8.50;7.00;;;27.70;99.90;;;;;;5050256;28;20213;-83
2021/07/20 11:51:00;;;;;;;6.97;6.35;;;27.60;99.90;;;;;;5028746;28;20238;-84
2021/07/20 11:53:34;;;;;;;7.75;6.65;;;27.70;99.90;;;;;;5030028;28;20600;-81
2021/07/20 11:56:16;;;;;;;6.68;5.97;;;27.70;99.90;;;;;;5030372;28;20199;-82
2021/07/20 11:59:22;;;;;;;7.00;6.30;;;27.80;99.90;;;;;;5028734;28;20241;-83
2021/07/20 12:02:27;;;;;;;10.43;6.68;;;28.00;99.90;;;;;;5030426;28;20206;-90
2021/07/20 12:05:25;;;;;;;6.93;6.20;;;27.80;99.90;;;;;;5030562;28;20207;-85
2021/07/20 12:07:55;;;;;;;7.90;6.00;;;27.70;99.90;;;;;;5014910;28;20258;-82
2021/07/20 12:10:39;;;;;;;8.82;6.28;;;27.50;99.90;;;;;;5033056;28;20203;-84
2021/07/20 12:13:13;;;;;;;7.65;6.57;;;27.70;99.90;;;;;;5033652;28;20195;-83
2021/07/20 12:15:41;;;;;;;8.85;6.30;;;27.70;99.90;;;;;;5032529;28;20587;-83
2021/07/20 12:18:08;;;;;;;7.18;6.47;;;27.70;99.90;;;;;;5033442;28;20203;-83
2021/07/20 12:20:36;;;;;;;7.40;6.43;;;27.50;99.90;;;;;;5061033;28;20221;-82
2021/07/20 12:23:04;;;;;;;8.07;6.70;;;27.60;99.90;;;;;;5038649;28;20209;-84
2021/07/20 12:25:32;;;;;;;6.88;6.18;;;27.70;99.90;;;;;;5026540;28;20202;-83
2021/07/20 12:28:01;;;;;;;10.52;6.68;;;27.60;99.90;;;;;;5029169;28;20222;-82
2021/07/20 12:30:30;;;;;;;7.25;6.07;;;27.60;99.90;;;;;;5028170;28;20510;-89
2021/07/20 12:32:59;;;;;;;7.60;6.82;;;27.50;99.90;;;;;;5027976;28;20238;-84
2021/07/20 12:35:28;;;;;;;8.85;6.65;;;27.30;99.90;;;;;;5028665;28;20348;-86
2021/07/20 12:38:03;;;;;;;8.30;7.07;;;27.10;99.90;;;;;;5028852;28;20202;-84
2021/07/20 12:40:32;;;;;;;7.57;6.63;;;26.90;99.90;;;;;;5027496;28;20226;-88
2021/07/20 12:43:08;;;;;;;8.55;6.85;;;26.90;99.90;;;;;;5028222;28;20222;-85
2021/07/20 12:45:40;;;;;;;7.22;6.53;;;26.80;99.90;;;;;;5033180;28;20272;-90
2021/07/20 12:48:20;;;;;;;7.35;6.60;;;26.90;99.90;;;;;;5033455;28;20221;-85
2021/07/20 12:50:47;;;;;;;7.90;6.60;;;27.00;99.90;;;;;;5035550;28;20248;-88
2021/07/20 12:53:14;;;;;;;7.85;6.45;;;26.80;99.90;;;;;;5033976;28;20206;-83
2021/07/20 12:55:42;;;;;;;8.07;7.18;;;26.80;99.90;;;;;;5028598;28;20217;-81
2021/07/20 12:58:12;;;;;;;8.63;7.53;;;27.00;99.90;;;;;;5027737;28;20595;-87
2021/07/20 13:00:44;;;;;;;8.07;7.22;;;27.10;99.90;;;;;;5025733;28;20207;-88
2021/07/20 13:03:13;;;;;;;8.40;7.35;;;27.10;99.90;;;;;;5027144;28;20206;-87